Time;durP1;ratioP1;P1;durP2;ratioP2;P2;SDS_P1;SDS_P2;PMS_P1;PMS_P2;Temp;Humidity;BMP_temperature;BMP_pressure;BME280_temperature;BME280_humidity;BME280_pressure;Samples;Min_cycle;Max_cycle;Signal;HPM_P1;HPM_P2
2021/12/04 00:01:23;;;;;;;;;;;;;;;8.92;100.00;97039.47;5094857;28;20270;-78
2021/12/04 00:03:51;;;;;;;;;;;;;;;8.59;100.00;97041.19;5094953;28;19924;-78
2021/12/04 00:06:25;;;;;;;;;;;;;;;8.64;100.00;97035.03;5076622;28;19924;-78
2021/12/04 00:08:55;;;;;;;;;;;;;;;8.81;100.00;97031.56;5094859;28;19993;-78
2021/12/04 00:11:26;;;;;;;;;;;;;;;8.80;100.00;97024.41;5076646;28;19973;-78
2021/12/04 00:13:53;;;;;;;;;;;;;;;9.04;100.00;97024.63;5094550;28;20367;-79
2021/12/04 00:16:20;;;;;;;;;;;;;;;8.75;100.00;97010.34;5094709;28;20311;-78
2021/12/04 00:18:46;;;;;;;;;;;;;;;8.59;100.00;97005.78;5076572;28;19924;-78
2021/12/04 00:21:14;;;;;;;;;;;;;;;8.32;100.00;97010.47;5076179;28;20290;-78
2021/12/04 00:23:41;;;;;;;;;;;;;;;8.71;100.00;97009.69;5076448;28;20268;-78
2021/12/04 00:26:08;;;;;;;;;;;;;;;8.67;100.00;97006.28;5059989;28;19981;-78
2021/12/04 00:28:35;;;;;;;;;;;;;;;8.94;100.00;97009.91;5094542;28;20363;-78
2021/12/04 00:31:07;;;;;;;;;;;;;;;8.93;100.00;97002.81;5076621;28;19928;-78
2021/12/04 00:33:37;;;;;;;;;;;;;;;8.78;100.00;97001.06;5094591;28;19928;-78
2021/12/04 00:36:21;;;;;;;;;;;;;;;9.01;100.00;97003.28;5094211;28;19986;-78
2021/12/04 00:50:01;;;;;;;;;;;;;;;9.47;100.00;96978.97;4979212;28;19929;-78
2021/12/04 00:52:29;;;;;;;;;;;;;;;9.20;100.00;96971.41;4995440;28;19931;-79
2021/12/04 00:54:58;;;;;;;;;;;;;;;9.37;100.00;96969.06;4996118;28;19932;-78
2021/12/04 00:57:25;;;;;;;;;;;;;;;8.97;100.00;96958.84;5011887;28;19983;-78
2021/12/04 00:59:52;;;;;;;;;;;;;;;9.18;100.00;96950.81;5011676;28;20369;-79
2021/12/04 01:02:19;;;;;;;;;;;;;;;8.80;100.00;96957.59;5010393;28;19925;-78
2021/12/04 01:04:47;;;;;;;;;;;;;;;8.51;100.00;96948.09;5011721;28;19933;-78
2021/12/04 01:07:14;;;;;;;;;;;;;;;8.53;100.00;96940.84;5011820;28;19925;-78
2021/12/04 01:09:43;;;;;;;;;;;;;;;8.32;100.00;96947.28;5011683;28;20360;-78
2021/12/04 01:12:11;;;;;;;;;;;;;;;8.55;100.00;96945.94;5011843;28;19936;-78
2021/12/04 01:14:38;;;;;;;;;;;;;;;8.90;100.00;96948.03;5011870;28;19926;-78
2021/12/04 01:17:04;;;;;;;;;;;;;;;8.97;100.00;96942.13;5014561;28;19925;-78
2021/12/04 01:19:32;;;;;;;;;;;;;;;9.00;100.00;96930.06;5093517;28;19963;-78
2021/12/04 01:21:59;;;;;;;;;;;;;;;9.10;100.00;96930.84;5075990;28;20387;-78
2021/12/04 01:24:26;;;;;;;;;;;;;;;9.24;100.00;96933.00;5093932;28;19928;-78
2021/12/04 01:26:54;;;;;;;;;;;;;;;9.29;100.00;96923.25;5075907;28;19924;-79
2021/12/04 01:29:21;;;;;;;;;;;;;;;9.24;100.00;96927.41;5093902;28;19948;-79
2021/12/04 01:31:48;;;;;;;;;;;;;;;9.33;100.00;96918.31;5093672;28;19931;-79
2021/12/04 01:34:15;;;;;;;;;;;;;;;9.29;100.00;96914.88;5093786;28;20010;-79
2021/12/04 01:36:43;;;;;;;;;;;;;;;9.05;100.00;96915.53;5075784;28;19983;-79
2021/12/04 01:39:11;;;;;;;;;;;;;;;9.06;100.00;96911.50;5075868;28;19936;-79
2021/12/04 01:41:38;;;;;;;;;;;;;;;9.19;100.00;96908.56;5059047;28;19966;-78
2021/12/04 01:44:05;;;;;;;;;;;;;;;9.15;100.00;96896.78;5093904;28;20011;-78
2021/12/04 01:46:33;;;;;;;;;;;;;;;9.07;100.00;96898.34;5058996;28;20322;-77
2021/12/04 01:49:00;;;;;;;;;;;;;;;9.00;100.00;96885.50;5093720;28;20015;-77
2021/12/04 01:51:27;;;;;;;;;;;;;;;8.84;100.00;96880.25;5093722;28;19924;-78
2021/12/04 01:53:55;;;;;;;;;;;;;;;9.11;100.00;96869.09;5075742;28;19946;-77
2021/12/04 01:56:22;;;;;;;;;;;;;;;9.03;100.00;96862.28;5093749;28;19993;-77
2021/12/04 01:58:50;;;;;;;;;;;;;;;8.78;100.00;96873.75;5075672;28;19938;-77
2021/12/04 02:01:17;;;;;;;;;;;;;;;8.90;100.00;96875.63;5096848;28;19924;-77
2021/12/04 02:03:44;;;;;;;;;;;;;;;8.78;100.00;96873.75;5097406;28;20268;-77
2021/12/04 02:06:12;;;;;;;;;;;;;;;8.36;100.00;96870.00;5097456;28;19931;-77
2021/12/04 02:08:42;;;;;;;;;;;;;;;8.31;100.00;96878.97;5097510;28;19960;-77
2021/12/04 02:11:09;;;;;;;;;;;;;;;8.41;100.00;96883.31;5097201;28;20354;-77
2021/12/04 02:13:36;;;;;;;;;;;;;;;8.57;100.00;96877.44;5062347;28;20401;-78
2021/12/04 02:16:13;;;;;;;;;;;;;;;8.66;100.00;96874.66;5096852;28;19924;-77
2021/12/04 02:18:41;;;;;;;;;;;;;;;8.94;100.00;96870.66;5097200;28;20484;-77
2021/12/04 02:21:08;;;;;;;;;;;;;;;8.96;100.00;96867.41;5097000;28;19931;-77
2021/12/04 02:23:35;;;;;;;;;;;;;;;8.89;100.00;96865.69;5079201;28;19931;-77
2021/12/04 02:26:03;;;;;;;;;;;;;;;8.93;100.00;96860.78;5097001;28;20025;-77
2021/12/04 02:28:30;;;;;;;;;;;;;;;8.97;100.00;96853.03;5062415;28;20007;-77
2021/12/04 02:30:58;;;;;;;;;;;;;;;9.12;100.00;96836.44;5096696;28;19932;-78
2021/12/04 02:33:25;;;;;;;;;;;;;;;9.42;100.00;96837.47;5096812;28;19928;-78
2021/12/04 02:35:54;;;;;;;;;;;;;;;9.34;100.00;96842.59;5096802;28;19931;-78
2021/12/04 02:38:23;;;;;;;;;;;;;;;9.22;100.00;96835.19;5101946;28;20375;-78
2021/12/04 02:40:51;;;;;;;;;;;;;;;9.28;100.00;96832.53;5078559;28;20420;-78
2021/12/04 02:43:18;;;;;;;;;;;;;;;9.24;100.00;96832.69;5078837;28;19974;-78
2021/12/04 02:45:45;;;;;;;;;;;;;;;9.53;100.00;96826.56;5096356;28;19931;-78
2021/12/04 02:48:13;;;;;;;;;;;;;;;9.45;100.00;96825.38;5096465;28;19926;-78
2021/12/04 02:50:58;;;;;;;;;;;;;;;9.34;100.00;96825.88;5096486;28;19916;-78
2021/12/04 02:53:25;;;;;;;;;;;;;;;9.48;100.00;96818.88;5078873;28;20340;-78
2021/12/04 02:55:53;;;;;;;;;;;;;;;9.25;100.00;96819.53;5096468;28;19924;-78
2021/12/04 02:58:21;;;;;;;;;;;;;;;9.43;100.00;96805.56;5078333;28;19930;-78
2021/12/04 03:00:56;;;;;;;;;;;;;;;9.08;100.00;96808.75;5061116;28;19924;-78
2021/12/04 03:03:46;;;;;;;;;;;;;;;8.93;100.00;96819.00;5061400;28;20287;-78
2021/12/04 03:06:16;;;;;;;;;;;;;;;8.93;100.00;96813.44;5078172;28;19947;-77
2021/12/04 03:08:44;;;;;;;;;;;;;;;8.82;100.00;96812.34;5096034;28;20015;-78
2021/12/04 03:11:11;;;;;;;;;;;;;;;8.52;100.00;96816.84;5077437;28;19924;-78
2021/12/04 03:13:38;;;;;;;;;;;;;;;8.33;100.00;96814.53;5095311;28;19931;-78
2021/12/04 03:16:06;;;;;;;;;;;;;;;8.16;100.00;96819.56;5095938;28;20427;-78
2021/12/04 03:18:33;;;;;;;;;;;;;;;8.19;100.00;96823.44;5095906;28;19924;-77
2021/12/04 03:21:03;;;;;;;;;;;;;;;8.09;100.00;96822.63;5077593;28;20387;-77
2021/12/04 03:23:34;;;;;;;;;;;;;;;8.23;100.00;96821.28;5095647;28;19924;-78
2021/12/04 03:26:04;;;;;;;;;;;;;;;8.22;100.00;96820.53;5061165;28;19924;-78
2021/12/04 03:28:32;;;;;;;;;;;;;;;8.30;100.00;96815.44;5060994;28;19924;-78
2021/12/04 03:41:55;;;;;;;;;;;;;;;7.27;100.00;96823.53;5095481;28;20282;-77
2021/12/04 03:44:22;;;;;;;;;;;;;;;7.12;100.00;96850.31;5060266;28;19947;-78
2021/12/04 03:46:50;;;;;;;;;;;;;;;7.04;100.00;96851.81;5077161;28;19924;-78
2021/12/04 03:49:19;;;;;;;;;;;;;;;6.63;100.00;96835.47;5077581;28;19993;-77
2021/12/04 03:51:46;;;;;;;;;;;;;;;6.32;100.00;96829.81;5095115;28;20286;-77
2021/12/04 03:54:13;;;;;;;;;;;;;;;6.12;100.00;96836.88;5095061;28;20013;-77
2021/12/04 03:56:40;;;;;;;;;;;;;;;6.06;100.00;96839.41;5060094;28;19924;-78
2021/12/04 03:59:07;;;;;;;;;;;;;;;6.34;100.00;96844.03;5077196;28;19930;-78
2021/12/04 04:01:34;;;;;;;;;;;;;;;6.17;100.00;96827.97;5094855;28;19924;-77
2021/12/04 04:04:02;;;;;;;;;;;;;;;6.12;100.00;96864.59;5076597;28;19931;-78
2021/12/04 04:06:29;;;;;;;;;;;;;;;5.97;100.00;96855.22;5094900;28;20011;-77
2021/12/04 04:08:56;;;;;;;;;;;;;;;6.15;100.00;96872.78;5094914;28;19993;-77
2021/12/04 04:11:23;;;;;;;;;;;;;;;5.78;100.00;96868.03;5094443;28;19928;-77
2021/12/04 04:13:50;;;;;;;;;;;;;;;5.70;100.00;96877.00;5076770;28;19924;-78
2021/12/04 04:16:17;;;;;;;;;;;;;;;5.97;100.00;96874.59;5076846;28;19924;-78
2021/12/04 04:18:46;;;;;;;;;;;;;;;6.12;100.00;96857.03;5094694;28;19946;-77
2021/12/04 04:21:13;;;;;;;;;;;;;;;5.67;100.00;96847.41;5094515;28;19924;-77
2021/12/04 04:23:40;;;;;;;;;;;;;;;5.91;100.00;96857.00;5093813;28;19959;-77
2021/12/04 04:26:08;;;;;;;;;;;;;;;5.86;100.00;96849.97;5076210;28;19928;-77
2021/12/04 04:28:36;;;;;;;;;;;;;;;5.78;100.00;96847.88;5094423;28;19931;-77
2021/12/04 04:31:03;;;;;;;;;;;;;;;5.65;100.00;96847.09;5094311;28;20286;-77
2021/12/04 04:33:36;;;;;;;;;;;;;;;5.86;100.00;96863.06;5076478;28;19974;-77
2021/12/04 04:36:31;;;;;;;;;;;;;;;5.81;100.00;96864.38;5094373;28;19924;-78
2021/12/04 05:12:47;;;;;;;;;;;;;;;6.28;100.00;96836.72;4975656;28;19929;-78
2021/12/04 05:15:18;;;;;;;;;;;;;;;6.38;100.00;96832.78;4991881;28;19925;-78
2021/12/04 05:20:19;;;;;;;;;;;;;;;6.03;100.00;96820.91;4991625;28;20422;-78
2021/12/04 05:22:46;;;;;;;;;;;;;;;6.47;100.00;96821.78;4991679;28;19930;-78
2021/12/04 05:25:13;;;;;;;;;;;;;;;6.17;100.00;96837.06;4991637;28;20266;-77
2021/12/04 05:27:42;;;;;;;;;;;;;;;5.94;100.00;96829.13;4991718;28;19932;-78
2021/12/04 05:30:09;;;;;;;;;;;;;;;6.22;100.00;96817.09;4991724;28;20681;-78
2021/12/04 05:32:37;;;;;;;;;;;;;;;6.21;100.00;96798.16;4959593;28;19937;-78
2021/12/04 05:35:05;;;;;;;;;;;;;;;6.05;100.00;96812.94;4995112;28;19932;-78
2021/12/04 05:37:31;;;;;;;;;;;;;;;6.20;100.00;96819.53;5034894;28;20339;-78
2021/12/04 05:39:59;;;;;;;;;;;;;;;6.39;100.00;96807.38;5034596;28;20016;-77
2021/12/04 05:42:26;;;;;;;;;;;;;;;6.46;100.00;96811.91;5035124;28;19929;-78
2021/12/04 05:44:53;;;;;;;;;;;;;;;6.50;100.00;96812.53;5053109;28;19931;-77
2021/12/04 05:47:25;;;;;;;;;;;;;;;6.53;100.00;96797.78;5079426;28;19924;-77
2021/12/04 05:50:02;;;;;;;;;;;;;;;6.58;100.00;96805.53;5097630;28;19928;-78
2021/12/04 05:52:40;;;;;;;;;;;;;;;6.43;100.00;96815.59;5097481;28;19924;-78
2021/12/04 05:55:14;;;;;;;;;;;;;;;6.61;100.00;96808.19;5097360;28;19924;-77
2021/12/04 05:57:41;;;;;;;;;;;;;;;6.64;100.00;96812.84;5079041;28;19974;-78
2021/12/04 06:00:10;;;;;;;;;;;;;;;6.76;100.00;96809.22;5097151;28;19928;-78
2021/12/04 06:02:37;;;;;;;;;;;;;;;6.49;100.00;96792.38;5097057;28;19924;-78
2021/12/04 06:05:04;;;;;;;;;;;;;;;6.61;100.00;96787.97;5097097;28;19928;-78
2021/12/04 06:07:31;;;;;;;;;;;;;;;6.52;100.00;96787.91;5096609;28;19931;-77
2021/12/04 06:09:58;;;;;;;;;;;;;;;6.29;100.00;96778.03;5062465;28;19928;-78
2021/12/04 06:12:26;;;;;;;;;;;;;;;6.24;100.00;96780.63;5096835;28;19928;-78
2021/12/04 06:14:53;;;;;;;;;;;;;;;6.22;100.00;96781.06;5097093;28;19924;-78
2021/12/04 06:17:20;;;;;;;;;;;;;;;6.37;100.00;96784.88;5079135;28;19924;-77
2021/12/04 06:22:38;;;;;;;;;;;;;;;6.30;100.00;96756.63;5096487;28;19924;-77
2021/12/04 06:25:11;;;;;;;;;;;;;;;6.78;100.00;96769.91;5096900;28;20425;-77
2021/12/04 06:27:39;;;;;;;;;;;;;;;6.72;100.00;96777.28;5078956;28;19952;-78
2021/12/04 06:30:07;;;;;;;;;;;;;;;6.69;100.00;96780.97;5061563;28;20018;-78
2021/12/04 06:32:36;;;;;;;;;;;;;;;6.80;100.00;96789.66;5096768;28;19931;-77
2021/12/04 06:35:04;;;;;;;;;;;;;;;6.56;100.00;96783.78;5096662;28;19931;-78
2021/12/04 06:37:32;;;;;;;;;;;;;;;6.58;100.00;96777.78;5078252;28;19924;-78
2021/12/04 06:39:59;;;;;;;;;;;;;;;6.54;100.00;96785.47;5096478;28;20322;-78
2021/12/04 06:42:27;;;;;;;;;;;;;;;6.44;100.00;96787.41;5078656;28;19924;-78
2021/12/04 06:44:56;;;;;;;;;;;;;;;6.52;100.00;96801.78;5077819;28;20314;-78
2021/12/04 06:47:23;;;;;;;;;;;;;;;6.73;100.00;96803.78;5078310;28;19974;-78
2021/12/04 06:49:54;;;;;;;;;;;;;;;6.33;100.00;96806.41;5078401;28;19924;-77
2021/12/04 06:52:25;;;;;;;;;;;;;;;6.44;100.00;96800.47;5044948;28;19924;-77
2021/12/04 06:54:57;;;;;;;;;;;;;;;6.60;100.00;96808.63;5078366;28;19931;-78
2021/12/04 06:57:25;;;;;;;;;;;;;;;6.53;100.00;96806.09;5096430;28;19924;-78
2021/12/04 06:59:54;;;;;;;;;;;;;;;6.27;100.00;96786.00;5078316;28;19926;-77
2021/12/04 07:02:21;;;;;;;;;;;;;;;6.38;100.00;96791.97;5096035;28;19931;-78
2021/12/04 07:04:48;;;;;;;;;;;;;;;6.16;100.00;96780.09;5096170;28;19924;-77
2021/12/04 07:07:15;;;;;;;;;;;;;;;5.96;100.00;96792.66;5077131;28;20390;-77
2021/12/04 07:09:42;;;;;;;;;;;;;;;6.17;100.00;96792.72;5098327;28;19924;-77
2021/12/04 07:12:10;;;;;;;;;;;;;;;6.11;100.00;96788.19;5083014;28;19932;-77
2021/12/04 07:14:40;;;;;;;;;;;;;;;6.07;100.00;96793.88;5085608;28;19924;-78
2021/12/04 07:17:09;;;;;;;;;;;;;;;5.96;100.00;96789.88;5098292;28;19927;-77
2021/12/04 07:19:37;;;;;;;;;;;;;;;5.99;100.00;96794.53;5079746;28;19990;-77
2021/12/04 07:22:04;;;;;;;;;;;;;;;5.91;100.00;96785.69;5095131;28;19924;-77
2021/12/04 07:24:32;;;;;;;;;;;;;;;5.99;100.00;96797.31;5113400;28;19923;-77
2021/12/04 07:26:59;;;;;;;;;;;;;;;6.07;100.00;96804.16;5088057;28;19928;-77
2021/12/04 07:29:26;;;;;;;;;;;;;;;5.89;100.00;96792.91;5094976;28;19960;-77
2021/12/04 07:31:54;;;;;;;;;;;;;;;6.06;100.00;96783.22;5113007;28;19923;-77
2021/12/04 07:34:21;;;;;;;;;;;;;;;6.22;100.00;96786.59;5101833;28;20006;-77
2021/12/04 07:36:52;;;;;;;;;;;;;;;6.03;100.00;96775.81;5104000;28;19930;-78
2021/12/04 07:39:19;;;;;;;;;;;;;;;5.99;100.00;96789.00;5096680;28;19955;-78
2021/12/04 07:41:46;;;;;;;;;;;;;;;5.81;100.00;96791.56;5097639;28;19928;-77
2021/12/04 07:44:15;;;;;;;;;;;;;;;5.87;100.00;96811.97;5079687;28;19959;-77
2021/12/04 07:46:42;;;;;;;;;;;;;;;5.89;100.00;96792.91;5100646;28;20267;-78
2021/12/04 07:49:09;;;;;;;;;;;;;;;5.83;100.00;96805.78;5076548;28;19932;-77
2021/12/04 07:51:37;;;;;;;;;;;;;;;6.15;100.00;96802.72;5100420;28;20248;-77
2021/12/04 07:54:04;;;;;;;;;;;;;;;5.88;100.00;96802.44;5079412;28;19931;-77
2021/12/04 07:56:32;;;;;;;;;;;;;;;6.09;100.00;96807.28;5076404;28;20248;-77
2021/12/04 07:58:59;;;;;;;;;;;;;;;6.15;100.00;96805.50;5100471;28;19949;-77
2021/12/04 08:01:27;;;;;;;;;;;;;;;5.94;100.00;96814.53;5097450;28;19927;-77
2021/12/04 08:03:54;;;;;;;;;;;;;;;5.90;100.00;96811.88;5097175;28;20403;-77
2021/12/04 08:06:22;;;;;;;;;;;;;;;6.22;100.00;96821.88;5076263;28;19924;-77
2021/12/04 08:08:52;;;;;;;;;;;;;;;6.54;100.00;96810.44;5094851;28;20385;-78
2021/12/04 08:11:19;;;;;;;;;;;;;;;6.06;100.00;96802.63;5094758;28;19924;-78
2021/12/04 08:13:47;;;;;;;;;;;;;;;5.80;100.00;96812.94;5094500;28;19931;-78
2021/12/04 08:16:15;;;;;;;;;;;;;;;5.85;100.00;96808.84;5099888;28;19924;-77
2021/12/04 08:18:42;;;;;;;;;;;;;;;5.93;100.00;96815.72;5076410;28;20377;-78
2021/12/04 08:21:09;;;;;;;;;;;;;;;5.77;100.00;96829.69;5099534;28;19934;-77
2021/12/04 08:23:37;;;;;;;;;;;;;;;5.78;100.00;96820.16;5076656;28;20276;-76
2021/12/04 08:26:04;;;;;;;;;;;;;;;5.91;100.00;96802.31;5094660;28;20363;-77
2021/12/04 08:28:32;;;;;;;;;;;;;;;6.05;100.00;96807.38;5094719;28;19931;-77
2021/12/04 08:30:58;;;;;;;;;;;;;;;6.05;100.00;96821.25;5094540;28;20064;-77
2021/12/04 08:33:26;;;;;;;;;;;;;;;6.11;100.00;96811.16;5076293;28;20280;-77
2021/12/04 08:35:53;;;;;;;;;;;;;;;6.06;100.00;96813.72;5076526;28;20361;-77
2021/12/04 08:38:20;;;;;;;;;;;;;;;6.11;100.00;96810.34;5076406;28;20022;-77
2021/12/04 08:40:48;;;;;;;;;;;;;;;6.24;100.00;96808.34;5094200;28;20543;-77
2021/12/04 08:43:15;;;;;;;;;;;;;;;5.92;100.00;96797.56;5076436;28;20068;-77
2021/12/04 08:45:42;;;;;;;;;;;;;;;5.88;100.00;96796.91;5094179;28;19971;-77
2021/12/04 08:48:18;;;;;;;;;;;;;;;6.05;100.00;96795.53;5074659;28;19962;-78
2021/12/04 08:50:46;;;;;;;;;;;;;;;6.03;100.00;96786.91;5078788;28;19934;-77
2021/12/04 08:53:13;;;;;;;;;;;;;;;6.14;100.00;96787.28;5075466;28;20492;-77
2021/12/04 08:55:43;;;;;;;;;;;;;;;6.05;100.00;96779.66;5078320;28;19924;-77
2021/12/04 08:58:10;;;;;;;;;;;;;;;6.23;100.00;96779.03;5092947;28;19928;-78
2021/12/04 09:00:46;;;;;;;;;;;;;;;6.16;100.00;96793.16;5095768;28;20329;-77
2021/12/04 09:03:13;;;;;;;;;;;;;;;6.21;100.00;96792.59;5092813;28;20019;-77
2021/12/04 09:05:41;;;;;;;;;;;;;;;6.14;100.00;96790.06;5086443;28;19931;-77
2021/12/04 09:08:08;;;;;;;;;;;;;;;6.03;100.00;96792.44;5071041;28;19932;-77
2021/12/04 09:10:36;;;;;;;;;;;;;;;6.14;100.00;96781.75;5062406;28;19924;-78
2021/12/04 09:13:03;;;;;;;;;;;;;;;6.08;100.00;96775.22;5091203;28;19924;-78
2021/12/04 09:15:33;;;;;;;;;;;;;;;5.98;100.00;96768.06;5055572;28;19931;-77
2021/12/04 09:18:01;;;;;;;;;;;;;;;5.99;100.00;96758.50;5071584;28;19963;-77
2021/12/04 09:20:30;;;;;;;;;;;;;;;6.09;100.00;96765.69;5090308;28;19924;-77
2021/12/04 09:22:58;;;;;;;;;;;;;;;6.02;100.00;96777.00;5089914;28;19928;-78
2021/12/04 09:25:27;;;;;;;;;;;;;;;6.02;100.00;96765.91;5089830;28;19967;-77
2021/12/04 09:33:40;;;;;;;;;;;;;;;6.09;100.00;96769.22;5073301;28;20295;-80
2021/12/04 10:20:21;;;;;;;;;;;;;;;6.36;100.00;96774.25;5094512;28;19968;-78
2021/12/04 10:33:56;;;;;;;;;;;;;;;5.99;100.00;96769.59;5116481;28;19931;-78
2021/12/04 10:36:31;;;;;;;;;;;;;;;6.15;100.00;96761.13;5098298;28;19923;-77
2021/12/04 10:38:58;;;;;;;;;;;;;;;6.47;100.00;96763.53;5098154;28;19924;-78
2021/12/04 10:41:34;;;;;;;;;;;;;;;6.58;100.00;96747.28;5116271;28;19928;-79
2021/12/04 10:44:13;;;;;;;;;;;;;;;6.42;100.00;96737.13;5098137;28;19930;-79
2021/12/04 10:46:51;;;;;;;;;;;;;;;6.25;100.00;96751.66;5081997;28;19935;-80
2021/12/04 10:49:28;;;;;;;;;;;;;;;6.18;100.00;96749.91;5099032;28;19928;-79
2021/12/04 10:52:02;;;;;;;;;;;;;;;6.35;100.00;96742.94;5098652;28;19924;-80
2021/12/04 10:54:33;;;;;;;;;;;;;;;6.49;100.00;96741.66;5081207;28;19931;-80
2021/12/04 11:00:22;;;;;;;;;;;;;;;6.72;100.00;96714.22;5115731;28;19927;-80
2021/12/04 11:02:55;;;;;;;;;;;;;;;6.90;100.00;96722.66;5097662;28;19940;-80
2021/12/04 11:22:29;;;;;;;;;;;;;;;6.39;100.00;96693.66;5052209;28;20395;-79
2021/12/04 11:36:22;;;;;;;;;;;;;;;6.85;100.00;96675.28;5052252;28;19952;-79
2021/12/04 11:44:23;;;;;;;;;;;;;;;7.01;100.00;96661.16;4953933;29;19931;-80
2021/12/04 11:46:56;;;;;;;;;;;;;;;7.10;100.00;96663.97;4954067;29;19931;-79
2021/12/04 11:49:25;;;;;;;;;;;;;;;7.24;100.00;96660.59;4954031;29;20018;-80
2021/12/04 11:52:01;;;;;;;;;;;;;;;7.23;100.00;96651.53;4937890;29;19926;-80
2021/12/04 11:54:41;;;;;;;;;;;;;;;7.48;100.00;96650.50;4937991;29;20564;-79
2021/12/04 11:57:10;;;;;;;;;;;;;;;7.32;100.00;96637.66;4953707;29;19930;-79
2021/12/04 11:59:39;;;;;;;;;;;;;;;7.28;100.00;96648.13;4994033;28;20019;-80
2021/12/04 12:02:08;;;;;;;;;;;;;;;7.31;100.00;96638.09;4995797;28;19925;-80
2021/12/04 12:04:40;;;;;;;;;;;;;;;6.88;100.00;96621.63;4979657;28;20405;-80
2021/12/04 12:07:15;;;;;;;;;;;;;;;7.04;100.00;96627.69;5012077;28;19933;-80
2021/12/04 12:09:43;;;;;;;;;;;;;;;7.26;100.00;96624.81;5011511;28;19925;-80
2021/12/04 12:12:13;;;;;;;;;;;;;;;7.12;100.00;96609.53;5011818;28;20376;-80
2021/12/04 12:14:44;;;;;;;;;;;;;;;7.03;100.00;96617.81;5011856;28;19930;-80
2021/12/04 12:17:12;;;;;;;;;;;;;;;6.95;100.00;96601.94;4995647;28;20380;-80
2021/12/04 12:19:43;;;;;;;;;;;;;;;6.67;100.00;96606.59;5085136;28;20283;-80
2021/12/04 12:22:27;;;;;;;;;;;;;;;6.45;100.00;96585.69;5096255;28;19934;-80
2021/12/04 12:25:05;;;;;;;;;;;;;;;6.69;100.00;96611.69;5079119;28;20287;-80
2021/12/04 12:27:55;;;;;;;;;;;;;;;6.69;100.00;96589.50;5079294;28;20337;-80
2021/12/04 12:36:12;;;;;;;;;;;;;;;6.77;100.00;96596.31;5114069;28;19931;-80
2021/12/04 12:38:39;;;;;;;;;;;;;;;6.35;100.00;96600.72;5078876;28;19966;-80
2021/12/04 12:41:16;;;;;;;;;;;;;;;6.66;100.00;96604.28;5096295;28;19930;-80
2021/12/04 12:43:46;;;;;;;;;;;;;;;6.54;100.00;96607.94;5078017;28;20026;-80
2021/12/04 12:46:13;;;;;;;;;;;;;;;6.20;100.00;96586.66;5095671;28;20366;-79
2021/12/04 12:48:49;;;;;;;;;;;;;;;6.06;100.00;96609.34;5078825;28;19973;-80
2021/12/04 12:51:22;;;;;;;;;;;;;;;5.53;100.00;96627.84;5095721;28;20302;-79
2021/12/04 12:53:49;;;;;;;;;;;;;;;5.28;100.00;96611.34;5095232;28;19930;-79
2021/12/04 12:56:17;;;;;;;;;;;;;;;5.60;100.00;96644.22;5095535;28;19973;-79
2021/12/04 13:13:23;;;;;;;;;;;;;;;5.40;100.00;96649.28;5095115;28;19951;-79
2021/12/04 13:15:54;;;;;;;;;;;;;;;5.45;100.00;96628.56;5078276;28;20482;-80
2021/12/04 13:18:22;;;;;;;;;;;;;;;5.22;100.00;96624.19;5113381;28;19927;-79
2021/12/04 13:20:51;;;;;;;;;;;;;;;5.23;100.00;96631.28;5095138;28;20023;-79
2021/12/04 13:23:19;;;;;;;;;;;;;;;5.34;100.00;96639.22;5078276;28;19924;-79
2021/12/04 13:25:51;;;;;;;;;;;;;;;5.26;100.00;96621.28;5095388;28;20014;-79
2021/12/04 13:28:19;;;;;;;;;;;;;;;5.18;100.00;96628.31;5061933;28;20271;-79
2021/12/04 13:30:47;;;;;;;;;;;;;;;5.08;100.00;96618.34;5113014;28;19924;-79
2021/12/04 13:33:14;;;;;;;;;;;;;;;5.12;100.00;96577.47;5094785;28;19963;-78
2021/12/04 13:35:46;;;;;;;;;;;;;;;5.20;100.00;96603.69;5113157;28;19928;-79
2021/12/04 13:38:14;;;;;;;;;;;;;;;5.51;100.00;96627.53;5113046;28;19924;-79
2021/12/04 13:40:44;;;;;;;;;;;;;;;5.66;100.00;96633.34;5095277;28;19931;-79
2021/12/04 13:43:13;;;;;;;;;;;;;;;5.40;100.00;96643.75;5113024;28;19928;-79
2021/12/04 13:45:41;;;;;;;;;;;;;;;5.50;100.00;96631.53;5094909;28;20409;-79
2021/12/04 13:48:09;;;;;;;;;;;;;;;5.45;100.00;96621.00;5113216;28;19927;-80
2021/12/04 13:53:14;;;;;;;;;;;;;;;5.63;100.00;96636.25;5113067;28;19931;-79
2021/12/04 13:55:44;;;;;;;;;;;;;;;5.29;100.00;96623.94;5115729;28;19973;-80
2021/12/04 13:58:11;;;;;;;;;;;;;;;5.46;100.00;96616.25;5117018;28;19935;-80
2021/12/04 14:00:38;;;;;;;;;;;;;;;5.52;100.00;96637.41;5099042;28;19935;-80
2021/12/04 14:03:05;;;;;;;;;;;;;;;5.49;100.00;96599.53;5098734;28;19924;-80
2021/12/04 14:05:32;;;;;;;;;;;;;;;5.41;100.00;96614.81;5081871;28;19930;-79
2021/12/04 14:08:01;;;;;;;;;;;;;;;5.61;100.00;96645.00;5098331;28;19930;-80
2021/12/04 14:10:30;;;;;;;;;;;;;;;5.31;100.00;96635.34;5098761;28;19924;-79
2021/12/04 14:12:58;;;;;;;;;;;;;;;5.36;100.00;96645.09;5116641;28;19923;-80
2021/12/04 14:15:26;;;;;;;;;;;;;;;5.38;100.00;96640.63;5081592;28;19924;-79
2021/12/04 14:18:04;;;;;;;;;;;;;;;5.46;100.00;96650.25;5098359;28;19955;-80
2021/12/04 14:20:32;;;;;;;;;;;;;;;5.21;100.00;96600.47;5098247;28;20065;-79
2021/12/04 14:22:59;;;;;;;;;;;;;;;5.85;100.00;96631.50;5098355;28;19930;-80
2021/12/04 14:25:26;;;;;;;;;;;;;;;5.81;100.00;96633.63;5098560;28;20306;-80
2021/12/04 14:27:54;;;;;;;;;;;;;;;5.86;100.00;96622.00;5081500;28;19973;-80
2021/12/04 14:30:24;;;;;;;;;;;;;;;5.93;100.00;96639.13;5098216;28;19927;-80
2021/12/04 14:32:56;;;;;;;;;;;;;;;5.82;100.00;96616.56;5116382;28;19928;-79
2021/12/04 14:35:28;;;;;;;;;;;;;;;6.01;100.00;96625.78;5098040;28;19932;-80
2021/12/04 14:37:57;;;;;;;;;;;;;;;6.21;100.00;96626.25;5098344;28;19959;-80
2021/12/04 14:40:36;;;;;;;;;;;;;;;6.11;100.00;96627.41;5097925;28;19923;-80
2021/12/04 14:43:05;;;;;;;;;;;;;;;6.08;100.00;96620.75;5116214;28;19974;-80
2021/12/04 14:45:35;;;;;;;;;;;;;;;5.92;100.00;96600.78;5081256;28;19932;-80
2021/12/04 14:48:15;;;;;;;;;;;;;;;6.13;100.00;96627.72;5064361;28;20411;-79
2021/12/04 14:50:43;;;;;;;;;;;;;;;6.33;100.00;96622.63;5097717;28;19923;-80
2021/12/04 14:53:12;;;;;;;;;;;;;;;6.15;100.00;96620.50;5115980;28;19963;-80
2021/12/04 14:55:43;;;;;;;;;;;;;;;6.55;100.00;96606.69;5116005;28;19970;-80
2021/12/04 14:58:13;;;;;;;;;;;;;;;6.31;100.00;96605.66;5115973;28;19951;-80
2021/12/04 15:00:45;;;;;;;;;;;;;;;6.28;100.00;96612.88;5097656;28;20098;-80
2021/12/04 15:03:15;;;;;;;;;;;;;;;6.12;100.00;96584.59;5080888;28;20015;-80
2021/12/04 15:05:50;;;;;;;;;;;;;;;6.25;100.00;96582.50;5080268;28;19923;-80
2021/12/04 15:08:20;;;;;;;;;;;;;;;5.98;100.00;96585.13;5097659;28;19924;-80
2021/12/04 15:10:49;;;;;;;;;;;;;;;6.21;100.00;96617.94;5097393;28;19924;-80
2021/12/04 15:13:18;;;;;;;;;;;;;;;6.21;100.00;96615.16;5064022;28;20475;-80
2021/12/04 15:15:45;;;;;;;;;;;;;;;6.17;100.00;96631.13;5097367;28;20382;-80
2021/12/04 15:18:13;;;;;;;;;;;;;;;6.12;100.00;96628.97;5097051;28;20034;-80
2021/12/04 15:20:48;;;;;;;;;;;;;;;5.71;100.00;96623.69;5115402;28;20020;-79
2021/12/04 15:23:22;;;;;;;;;;;;;;;5.87;100.00;96616.00;5097521;28;19969;-79
2021/12/04 15:25:54;;;;;;;;;;;;;;;5.94;100.00;96612.97;5097720;28;19923;-80
2021/12/04 15:28:23;;;;;;;;;;;;;;;6.05;100.00;96601.47;5080229;28;19928;-80
2021/12/04 15:30:53;;;;;;;;;;;;;;;5.99;100.00;96639.31;5097150;28;19924;-80
2021/12/04 15:33:21;;;;;;;;;;;;;;;5.93;100.00;96627.28;5097098;28;19949;-80
2021/12/04 15:35:50;;;;;;;;;;;;;;;5.77;100.00;96646.84;5080350;28;19977;-80
2021/12/04 15:38:33;;;;;;;;;;;;;;;5.48;100.00;96639.50;5080324;28;20006;-80
2021/12/04 15:41:11;;;;;;;;;;;;;;;5.58;100.00;96643.91;5063649;28;19923;-79
2021/12/04 15:46:14;;;;;;;;;;;;;;;5.46;100.00;96650.25;5114965;28;20089;-80
2021/12/04 15:54:09;;;;;;;;;;;;;;;4.91;100.00;96664.75;5096618;28;19924;-80
2021/12/04 15:56:44;;;;;;;;;;;;;;;4.99;100.00;96692.94;5096778;28;20426;-80
2021/12/04 15:59:12;;;;;;;;;;;;;;;4.97;100.00;96701.69;5096828;28;19923;-80
2021/12/04 16:01:39;;;;;;;;;;;;;;;5.25;100.00;96703.59;5096473;28;19973;-80
2021/12/04 16:04:06;;;;;;;;;;;;;;;5.26;100.00;96709.88;5114464;28;19934;-80
2021/12/04 16:06:37;;;;;;;;;;;;;;;5.11;100.00;96706.00;5114800;28;20006;-80
2021/12/04 16:09:04;;;;;;;;;;;;;;;5.33;100.00;96693.81;5096397;28;19924;-80